Hackberry, Louisiana
Current Conditions -  °F | °C
As of 3:55 AM on Friday 28 Nov 2014 (Local Time) from KUXL Reporting Station
Clear Clear  
Wind Chill: 42°   Ceiling: Unl
Heat Index: 42°   Visibility: 10mi
Dew Point: 35°   Wind: 0mph
Humidity: 75%   Direction: NA
Pressure: 30.41"   Gusts: NA
Location:  30°N, 93.34°W
Report Text: KUXL 280955Z AUTO 00000KT 10SM CLR 06/02 A3041 RMK AO2 T00580017
Loading
Personal Weather Stations






























Interactive Weather Map New forecast layout! Learn more

10-Day Weather Forecast

Advertisements
Track Severe Weather on mobile